石垣島の過去48時間の天気

石垣島 (Ishigaki jima)

現在時刻: 12/11 17:03 JST (12/11 08:03 UTC) 以下の時間は現地時間です。

過去48時間のMETAR気象情報
時間 風向 風速(m/s) 視程 気温(℃) 湿度(%) 気圧(hPa) 天気現象
11 16:00 8 10km以上 22 100 1014 弱いしゅう雨
11 15:00 北北西 4 10km以上 25 94 1014 弱いしゅう雨
11 14:00 2 10km以上 25 100 1014 周辺でしゅう雨
11 13:41 2 10km以上 24 100 1014 弱いしゅう雨
11 13:33 不定 1 10km以上 25 94 1014 しゅう雨
11 13:22 西北西 2 5000m 24 100 1014 強いしゅう雨
11 13:15 北西 2 7000m 24 100 1014 しゅう雨
11 13:04 3 5000m 24 100 1014 強いしゅう雨
11 13:00 3 7000m 25 94 1014 強いしゅう雨
11 12:00 3 10km以上 27 89 1015
11 11:00 4 10km以上 26 89 1016
11 10:00 4 10km以上 26 89 1016 周辺でしゅう雨
11 09:00 4 10km以上 25 94 1016
11 08:00 3 10km以上 24 100 1015 周辺でしゅう雨
11 07:00 東南東 5 10km以上 24 94 1015
11 06:00 6 10km以上 24 94 1015 周辺でしゅう雨
10 20:00 東北東 11 10km以上 23 94 1016
10 19:00 東北東 13 10km以上 23 94 1016 弱いしゅう雨
10 18:00 東北東 12 10km以上 23 94 1016 弱いしゅう雨
10 17:00 東北東 14 10km以上 23 89 1015
10 16:00 北東 14 10km以上 24 83 1015
10 15:00 北東 14 10km以上 24 83 1015
10 14:00 北北東 13 9000m 23 94 1016 弱い雨
10 13:00 北東 12 10km以上 24 89 1016
10 12:00 北北東 12 10km以上 24 89 1016
10 11:00 北北東 13 10km以上 24 89 1017
10 10:00 北北東 10 10km以上 23 94 1017
10 09:00 北北東 11 10km以上 22 100 1016
10 08:00 北北東 10 10km以上 22 100 1016 弱いしゅう雨
10 07:11 北北東 9 10km以上 22 100 1016 弱いしゅう雨
10 07:00 北北東 9 10km以上 21 100 1016 しゅう雨
10 06:00 北北東 9 10km以上 21 100 1016 弱いしゅう雨
10 05:34 北北東 9 10km以上 21 100 1016 しゅう雨
9 20:18 東北東 11 10km以上 21 100 1018 弱いしゅう雨
9 20:00 東北東 12 6000m 21 100 1018 しゅう雨
9 19:00 東北東 12 10km以上 21 100 1018 弱いしゅう雨
9 18:00 東北東 12 10km以上 21 100 1017 弱いしゅう雨
ROIG 110700Z 35016KT 9999 -SHRA FEW008 SCT011 BKN015 22/22 Q1014
ROIG 110600Z 33008KT 300V010 9999 -SHRA FEW008 SCT011 BKN020 25/24 Q1014
ROIG 110500Z 36003KT 310V030 9999 VCSH FEW008 SCT015 BKN023 25/25 Q1014
ROIG 110441Z 35003KT 290V020 9999 -SHRA FEW008 SCT015 BKN023 24/24 Q1014 RMK 1ST008 3CU015 5CU023 A2996
ROIG 110433Z VRB01KT 9999 R04/0700VP1800U SHRA FEW008 SCT015 BKN020 FEW025TCU 25/24 Q1014 RMK 1ST008 3CU015 5CU020 1TCU025 A2996 TCU OHD MOV N
ROIG 110422Z 30004KT 270V340 5000 R04/0600VP1800D +SHRA FEW008 SCT015 BKN020 FEW025TCU 24/24 Q1014 RMK 1ST008 3CU015 5CU020 1TCU025 A2996 TCU OHD MOV N RI++
ROIG 110415Z 31004KT 280V010 7000 R04/0450VP1800U SHRA FEW008 SCT015 FEW025TCU BKN030 24/24 Q1014 RMK 1ST008 3CU015 1TCU025 7CU030 A2996 TCU OHD MOV N
ROIG 110404Z 36005KT 5000 R04/0350VP1800D +SHRA FEW012 SCT020 FEW025TCU BKN030 24/24 Q1014 RMK 2CU012 3CU020 1TCU025 5CU030 A2997 TCU OHD MOV N RI++
ROIG 110400Z 01005KT 7000 R04/0700VP1800D +SHRA FEW012 SCT020 FEW025TCU BKN030 25/24 Q1014
ROIG 110300Z 10005KT 050V150 9999 FEW012 FEW025TCU SCT030 27/25 Q1015
ROIG 110200Z 10007KT 9999 FEW012 SCT023 BKN035 26/24 Q1016
ROIG 110100Z 10007KT 9999 VCSH FEW012 BKN019 26/24 Q1016
ROIG 110000Z 10007KT 9999 SCT011 BKN210 25/24 Q1016
ROIG 102300Z 10006KT 9999 VCSH SCT011 SCT025 BKN060 24/24 Q1015
ROIG 102200Z 11009KT 9999 FEW011 SCT024 BKN038 24/23 Q1015
ROIG 102100Z 10011KT 9999 VCSH SCT013 BKN023 24/23 Q1015
ROIG 101100Z 07022KT 9999 SCT015 BKN045 23/22 Q1016
ROIG 101000Z 06025KT 9999 -SHRA FEW008 SCT012 BKN025 23/22 Q1016
ROIG 100900Z 06024KT 9999 -SHRA FEW011 BKN018 BKN040 23/22 Q1016
ROIG 100800Z 06028KT 9999 FEW014 BKN040 23/21 Q1015
ROIG 100700Z 05028KT 9999 SCT015 BKN038 24/21 Q1015
ROIG 100600Z 04028KT 9999 FEW013 SCT018 BKN040 24/21 Q1015
ROIG 100500Z 03025KT 9000 -RA FEW012 SCT021 BKN035 23/22 Q1016
ROIG 100400Z 04024KT 9999 SCT014 BKN021 BKN040 24/22 Q1016
ROIG 100300Z 03023G33KT 9999 SCT016 BKN023 24/22 Q1016
ROIG 100200Z 03025KT 9999 SCT016 BKN021 24/22 Q1017
ROIG 100100Z 03020G30KT 9999 BKN014 BKN022 23/22 Q1017
ROIG 100000Z 03021KT 9999 SCT012 BKN021 22/22 Q1016
ROIG 092300Z 03020KT 9999 -SHRA FEW008 SCT013 BKN021 22/22 Q1016
ROIG 092211Z 02017KT 9999 -SHRA FEW007 SCT014 BKN021 22/22 Q1016 RMK 2ST007 4CU014 7CU021 A3003
ROIG 092200Z 02018KT 9999 SHRA FEW006 SCT014 BKN021 21/21 Q1016
ROIG 092100Z 02017KT 9999 -SHRA FEW006 SCT012 BKN021 21/21 Q1016
ROIG 092034Z 03018KT 9999 SHRA FEW005 SCT013 BKN026 21/21 Q1016 RMK 2ST005 3CU013 7CU026 A3001
ROIG 091118Z 06022KT 9999 -SHRA FEW005 BKN025 21/21 Q1018 RMK 2ST005 7CU025 A3008
ROIG 091100Z 07023KT 6000 SHRA SCT007 BKN011 21/21 Q1018
ROIG 091000Z 06023KT 9999 -SHRA FEW007 BKN012 BKN025 21/21 Q1018
ROIG 090900Z 06023KT 9999 -SHRA SCT011 BKN020 21/21 Q1017